createdAt,value
2023-01-26T00:03:26.021Z,1.62
2023-01-26T00:08:27.490Z,1.43
2023-01-26T00:13:28.874Z,1.68
2023-01-26T00:18:31.592Z,1.40
2023-01-26T00:23:34.790Z,1.61
2023-01-26T00:28:36.413Z,1.75
2023-01-26T00:33:37.982Z,1.76
2023-01-26T00:38:40.000Z,1.58
2023-01-26T00:43:41.399Z,1.66
2023-01-26T00:48:43.110Z,1.77
2023-01-26T00:53:44.671Z,1.76
2023-01-26T00:58:46.690Z,1.77
2023-01-26T01:03:48.093Z,1.69
2023-01-26T01:08:49.550Z,1.76
2023-01-26T01:13:51.061Z,1.62
2023-01-26T01:18:53.690Z,1.67
2023-01-26T01:23:55.150Z,1.69
2023-01-26T01:28:56.858Z,1.60
2023-01-26T01:33:58.410Z,1.61
2023-01-26T01:38:59.835Z,1.82
2023-01-26T01:44:19.761Z,1.81
2023-01-26T01:49:29.077Z,1.75
2023-01-26T01:54:39.608Z,1.66
2023-01-26T02:00:02.782Z,1.65
2023-01-26T02:05:15.210Z,1.67
2023-01-26T02:10:19.646Z,1.67
2023-01-26T02:15:21.230Z,1.68
2023-01-26T02:20:27.440Z,1.72
2023-01-26T02:25:51.399Z,1.76
2023-01-26T02:30:54.577Z,1.51
2023-01-26T02:35:56.197Z,1.58
2023-01-26T02:41:04.624Z,1.43
2023-01-26T02:46:06.324Z,1.66
2023-01-26T02:51:07.889Z,1.66
2023-01-26T02:56:09.415Z,1.74
2023-01-26T03:01:10.985Z,1.89
2023-01-26T03:06:13.456Z,1.92
2023-01-26T03:11:14.863Z,1.83
2023-01-26T03:16:16.423Z,1.83
2023-01-26T03:21:18.368Z,1.80
2023-01-26T03:26:21.226Z,1.63
2023-01-26T03:31:22.856Z,1.68
2023-01-26T03:36:24.319Z,1.25
2023-01-26T03:41:25.811Z,1.51
2023-01-26T03:46:27.379Z,1.62
2023-01-26T03:51:28.915Z,1.44
2023-01-26T03:56:30.495Z,1.54
2023-01-26T04:01:32.023Z,1.65
2023-01-26T04:06:34.742Z,1.79
2023-01-26T04:11:36.346Z,1.78
2023-01-26T04:16:37.850Z,1.66
2023-01-26T04:21:39.411Z,1.69
2023-01-26T04:26:42.595Z,1.74
2023-01-26T04:31:44.403Z,1.64
2023-01-26T04:36:46.211Z,1.56
2023-01-26T04:41:47.787Z,1.75
2023-01-26T04:46:49.213Z,1.68
2023-01-26T04:51:50.709Z,1.65
2023-01-26T04:56:52.439Z,1.59
2023-01-26T05:01:54.102Z,1.64
2023-01-26T05:06:55.643Z,1.50
2023-01-26T05:11:57.079Z,1.68
2023-01-26T05:16:58.566Z,1.72
2023-01-26T05:22:00.002Z,1.76
2023-01-26T05:27:01.609Z,1.96
2023-01-26T05:32:03.077Z,1.72
2023-01-26T05:37:04.699Z,1.41
2023-01-26T05:42:06.277Z,1.60
2023-01-26T05:47:08.337Z,1.53
2023-01-26T05:52:11.599Z,1.64
2023-01-26T05:57:13.689Z,1.62
2023-01-26T06:02:15.366Z,1.50
2023-01-26T06:07:16.923Z,1.66
2023-01-26T06:12:21.179Z,1.63
2023-01-26T06:17:22.652Z,1.60
2023-01-26T06:22:24.247Z,1.41
2023-01-26T06:27:25.654Z,1.52
2023-01-26T06:32:27.291Z,1.66
2023-01-26T06:37:28.765Z,1.49
2023-01-26T06:42:30.251Z,1.63
2023-01-26T06:47:31.724Z,1.38
2023-01-26T06:52:36.054Z,1.37
2023-01-26T06:57:37.559Z,1.48
2023-01-26T07:02:39.506Z,1.50
2023-01-26T07:07:41.029Z,1.31
2023-01-26T07:12:45.182Z,1.54
2023-01-26T07:17:46.631Z,1.58
2023-01-26T07:22:48.105Z,1.69
2023-01-26T07:27:54.784Z,1.69
2023-01-26T07:32:59.660Z,1.27
2023-01-26T07:38:04.094Z,1.49
2023-01-26T07:43:06.840Z,1.61
2023-01-26T07:48:08.301Z,1.55
2023-01-26T07:53:09.721Z,1.26
2023-01-26T07:58:12.264Z,1.30
2023-01-26T08:03:14.235Z,1.43
2023-01-26T08:08:15.845Z,1.40
2023-01-26T08:13:29.953Z,1.44
2023-01-26T08:18:36.033Z,1.36
2023-01-26T08:23:37.663Z,1.46
2023-01-26T08:28:39.212Z,1.31
2023-01-26T08:33:43.044Z,1.46
2023-01-26T08:38:44.706Z,1.30
2023-01-26T08:43:46.187Z,1.30
2023-01-26T08:48:47.671Z,1.28
2023-01-26T08:53:49.221Z,1.04
2023-01-26T08:58:50.753Z,1.23
2023-01-26T09:03:52.369Z,1.08
2023-01-26T09:08:54.027Z,1.16
2023-01-26T09:13:55.485Z,1.20
2023-01-26T09:18:57.135Z,1.45
2023-01-26T09:23:58.600Z,1.53
2023-01-26T09:29:00.047Z,1.58
2023-01-26T09:34:01.625Z,1.76
2023-01-26T09:39:03.198Z,1.93
2023-01-26T09:44:26.185Z,1.90
2023-01-26T09:49:52.248Z,2.06
2023-01-26T09:54:57.741Z,1.84
2023-01-26T10:00:27.189Z,1.87
2023-01-26T10:05:38.721Z,1.91
2023-01-26T10:10:55.633Z,1.51
2023-01-26T10:16:06.254Z,1.75
2023-01-26T10:21:10.960Z,1.68
2023-01-26T10:26:16.877Z,1.77
2023-01-26T10:31:22.798Z,1.63
2023-01-26T10:36:25.503Z,1.75
2023-01-26T10:41:29.025Z,1.93
2023-01-26T10:46:38.657Z,1.86
2023-01-26T10:52:05.020Z,1.71
2023-01-26T10:57:18.604Z,2.00
2023-01-26T11:02:23.382Z,2.07
2023-01-26T11:07:32.428Z,2.08
2023-01-26T11:12:33.884Z,1.92
2023-01-26T11:18:04.914Z,2.10
2023-01-26T11:23:17.370Z,1.99
2023-01-26T11:28:33.740Z,1.92
2023-01-26T11:33:40.983Z,1.82
2023-01-26T11:39:08.820Z,1.89
2023-01-26T11:44:10.414Z,2.02
2023-01-26T11:49:30.491Z,1.96
2023-01-26T11:54:40.579Z,1.96
2023-01-26T11:59:44.862Z,1.46
2023-01-26T12:04:46.741Z,1.85
2023-01-26T12:09:49.255Z,1.93
2023-01-26T12:15:06.122Z,2.03
2023-01-26T12:20:27.763Z,2.05
2023-01-26T12:25:39.337Z,1.90
2023-01-26T12:30:50.858Z,1.85
2023-01-26T12:36:10.867Z,2.01
2023-01-26T12:41:15.197Z,1.94
2023-01-26T12:46:17.472Z,2.33
2023-01-26T12:51:37.575Z,2.10
2023-01-26T12:56:49.440Z,2.10
2023-01-26T13:01:51.412Z,2.10
2023-01-26T13:07:27.809Z,2.12
2023-01-26T13:12:49.264Z,2.20
2023-01-26T13:17:59.682Z,2.22
2023-01-26T13:23:01.242Z,2.23
2023-01-26T13:28:12.271Z,2.11
2023-01-26T13:33:21.380Z,2.11
2023-01-26T13:38:31.293Z,2.25
2023-01-26T13:43:56.898Z,2.25
2023-01-26T13:48:58.702Z,2.22
2023-01-26T13:54:07.536Z,2.36
2023-01-26T13:59:11.889Z,2.37
2023-01-26T14:04:16.367Z,2.33
2023-01-26T14:09:18.882Z,2.36
2023-01-26T14:14:25.531Z,2.44
2023-01-26T14:19:28.534Z,2.36
2023-01-26T14:24:30.198Z,2.42
2023-01-26T14:29:38.507Z,2.44
2023-01-26T14:34:54.692Z,2.44
2023-01-26T14:40:14.905Z,2.44
2023-01-26T14:45:17.299Z,2.29
2023-01-26T14:50:28.297Z,2.49
2023-01-26T14:55:33.424Z,2.45
2023-01-26T15:00:37.101Z,2.45
2023-01-26T15:05:40.080Z,2.50
2023-01-26T15:10:55.922Z,2.49
2023-01-26T15:16:15.573Z,2.46
2023-01-26T15:21:22.327Z,2.53
2023-01-26T15:26:35.098Z,2.52
2023-01-26T15:31:40.139Z,2.43
2023-01-26T15:36:51.551Z,2.37
2023-01-26T15:42:11.029Z,2.40
2023-01-26T15:47:12.667Z,2.47
2023-01-26T15:52:19.930Z,2.42
2023-01-26T15:57:21.525Z,2.44
2023-01-26T16:02:23.025Z,2.52
2023-01-26T16:07:24.459Z,2.50
2023-01-26T16:12:31.605Z,2.52
2023-01-26T16:17:33.838Z,2.53
2023-01-26T16:22:35.317Z,2.51
2023-01-26T16:27:36.749Z,2.53
2023-01-26T16:32:38.352Z,2.35
2023-01-26T16:37:42.526Z,2.44
2023-01-26T16:42:48.503Z,2.53
2023-01-26T16:47:52.040Z,2.61
2023-01-26T16:52:53.450Z,2.53
2023-01-26T16:57:54.875Z,2.46
2023-01-26T17:02:56.403Z,2.41
2023-01-26T17:07:57.818Z,2.43
2023-01-26T17:12:59.564Z,2.46
2023-01-26T17:18:03.182Z,2.50
2023-01-26T17:23:05.161Z,2.43
2023-01-26T17:28:06.577Z,2.42
2023-01-26T17:33:08.133Z,2.40
2023-01-26T17:38:09.597Z,2.45
2023-01-26T17:43:11.095Z,2.49
2023-01-26T17:48:12.557Z,2.39
2023-01-26T17:53:14.039Z,2.47
2023-01-26T17:58:15.533Z,2.49
2023-01-26T18:03:17.035Z,2.55
2023-01-26T18:08:18.679Z,2.48
2023-01-26T18:13:20.346Z,2.50
2023-01-26T18:18:26.624Z,2.48
2023-01-26T18:23:28.094Z,2.52
2023-01-26T18:28:29.481Z,2.44
2023-01-26T18:33:30.960Z,2.49
2023-01-26T18:38:32.850Z,2.52
2023-01-26T18:43:34.421Z,2.54
2023-01-26T18:48:36.437Z,2.43
2023-01-26T18:53:38.342Z,2.39
2023-01-26T18:58:40.034Z,2.40
2023-01-26T19:03:42.924Z,2.45
2023-01-26T19:08:45.956Z,2.47
2023-01-26T19:13:47.429Z,2.59
2023-01-26T19:18:48.982Z,2.47
2023-01-26T19:23:52.176Z,2.44
2023-01-26T19:28:54.276Z,2.50
2023-01-26T19:34:01.951Z,2.47
2023-01-26T19:39:05.017Z,2.55
2023-01-26T19:44:07.071Z,2.58
2023-01-26T19:49:08.538Z,2.66
2023-01-26T19:54:10.098Z,2.68
2023-01-26T19:59:12.253Z,2.63
2023-01-26T20:04:14.748Z,2.69
2023-01-26T20:09:16.579Z,2.73
2023-01-26T20:14:18.177Z,2.72
2023-01-26T20:19:19.690Z,2.76
2023-01-26T20:24:21.421Z,2.79
2023-01-26T20:29:23.120Z,2.81
2023-01-26T20:34:25.003Z,2.79
2023-01-26T20:39:27.629Z,2.75
2023-01-26T20:44:29.165Z,2.71
2023-01-26T20:49:30.632Z,2.79
2023-01-26T20:54:32.437Z,2.81
2023-01-26T20:59:33.930Z,2.80
2023-01-26T21:04:35.403Z,2.80
2023-01-26T21:09:37.010Z,2.82
2023-01-26T21:14:38.536Z,2.76
2023-01-26T21:19:39.952Z,2.82
2023-01-26T21:24:41.373Z,2.86
2023-01-26T21:29:42.780Z,2.87
2023-01-26T21:34:44.441Z,2.86
2023-01-26T21:39:45.963Z,2.84
2023-01-26T21:44:47.957Z,2.88
2023-01-26T21:49:49.475Z,2.83
2023-01-26T21:54:50.895Z,2.86
2023-01-26T21:59:56.327Z,2.89
2023-01-26T22:04:57.927Z,2.90
2023-01-26T22:09:59.465Z,2.98
2023-01-26T22:15:00.874Z,2.90
2023-01-26T22:20:02.310Z,2.95
2023-01-26T22:25:03.874Z,2.99
2023-01-26T22:30:05.753Z,3.01
2023-01-26T22:35:07.906Z,3.01
2023-01-26T22:40:10.064Z,2.99
2023-01-26T22:45:12.324Z,2.98
2023-01-26T22:50:14.021Z,2.99
2023-01-26T22:55:15.842Z,2.91
2023-01-26T23:00:17.347Z,3.05
2023-01-26T23:05:18.883Z,3.05
2023-01-26T23:10:20.359Z,3.07
2023-01-26T23:15:22.739Z,3.07
2023-01-26T23:20:24.174Z,3.07
2023-01-26T23:25:25.825Z,3.07
2023-01-26T23:30:27.521Z,3.07
2023-01-26T23:35:29.029Z,2.87
2023-01-26T23:40:30.509Z,2.82
2023-01-26T23:45:32.881Z,3.00
2023-01-26T23:50:34.960Z,3.10
2023-01-26T23:55:40.636Z,3.12
